createdAt,value
2018-02-25T00:01:26.359Z,61.58
2018-02-25T00:03:54.049Z,61.60
2018-02-25T00:06:21.788Z,61.49
2018-02-25T00:08:49.552Z,61.54
2018-02-25T00:11:17.316Z,61.65
2018-02-25T00:13:45.081Z,61.84
2018-02-25T00:16:12.804Z,61.95
2018-02-25T00:18:40.555Z,61.89
2018-02-25T00:21:08.220Z,62.09
2018-02-25T00:23:35.922Z,62.37
2018-02-25T00:26:03.704Z,62.45
2018-02-25T00:28:31.468Z,62.58
2018-02-25T00:30:59.240Z,62.95
2018-02-25T00:33:26.948Z,63.21
2018-02-25T00:35:54.628Z,63.51
2018-02-25T00:38:22.328Z,63.73
2018-02-25T00:40:50.101Z,64.02
2018-02-25T00:43:17.860Z,64.19
2018-02-25T00:45:45.543Z,64.28
2018-02-25T00:48:13.574Z,64.28
2018-02-25T00:50:41.280Z,64.27
2018-02-25T00:53:09.023Z,64.31
2018-02-25T00:55:36.728Z,64.17
2018-02-25T00:58:04.452Z,64.12
2018-02-25T01:00:32.212Z,64.03
2018-02-25T01:02:59.884Z,64.04
2018-02-25T01:05:27.644Z,64.33
2018-02-25T01:07:55.332Z,64.36
2018-02-25T01:10:23.029Z,64.54
2018-02-25T01:12:50.703Z,64.47
2018-02-25T01:15:18.504Z,64.16
2018-02-25T01:17:46.188Z,64.38
2018-02-25T01:20:13.912Z,64.45
2018-02-25T01:22:41.588Z,64.58
2018-02-25T01:25:09.264Z,64.51
2018-02-25T01:27:36.972Z,64.52
2018-02-25T01:30:04.652Z,64.50
2018-02-25T01:32:32.349Z,64.47
2018-02-25T01:35:00.069Z,64.33
2018-02-25T01:37:27.772Z,64.39
2018-02-25T01:39:55.552Z,63.83
2018-02-25T01:42:23.256Z,63.42
2018-02-25T01:44:50.944Z,63.09
2018-02-25T01:47:18.649Z,63.63
2018-02-25T01:49:46.498Z,64.05
2018-02-25T01:52:14.253Z,64.39
2018-02-25T01:54:41.932Z,63.82
2018-02-25T01:57:09.698Z,63.31
2018-02-25T01:59:37.459Z,62.36
2018-02-25T02:02:05.224Z,62.23
2018-02-25T02:04:32.928Z,62.24
2018-02-25T02:07:00.608Z,62.47
2018-02-25T02:09:28.425Z,61.76
2018-02-25T02:11:56.188Z,61.84
2018-02-25T02:14:23.883Z,61.77
2018-02-25T02:16:51.564Z,61.61
2018-02-25T02:19:19.375Z,61.56
2018-02-25T02:21:47.149Z,61.54
2018-02-25T02:24:14.832Z,61.38
2018-02-25T02:26:42.540Z,61.78
2018-02-25T02:29:10.226Z,62.32
2018-02-25T02:31:37.929Z,62.39
2018-02-25T02:34:05.609Z,62.37
2018-02-25T02:36:33.317Z,62.22
2018-02-25T02:39:01.941Z,62.27
2018-02-25T02:41:29.644Z,62.54
2018-02-25T02:43:57.325Z,62.63
2018-02-25T02:46:25.029Z,62.85
2018-02-25T02:48:52.772Z,63.22
2018-02-25T02:51:20.488Z,63.38
2018-02-25T02:53:48.173Z,63.70
2018-02-25T02:56:15.905Z,64.17
2018-02-25T02:58:43.624Z,64.85
2018-02-25T03:01:11.396Z,65.33
2018-02-25T03:03:39.118Z,65.44
2018-02-25T03:06:06.806Z,65.55
2018-02-25T03:08:34.520Z,65.85
2018-02-25T03:11:02.255Z,65.59
2018-02-25T03:13:29.952Z,65.62
2018-02-25T03:15:57.637Z,65.80
2018-02-25T03:18:25.444Z,65.76
2018-02-25T03:20:53.124Z,65.66
2018-02-25T03:23:20.824Z,65.80
2018-02-25T03:25:48.504Z,65.79
2018-02-25T03:28:16.209Z,65.66
2018-02-25T03:30:43.966Z,65.74
2018-02-25T03:33:11.640Z,65.88
2018-02-25T03:35:39.388Z,65.58
2018-02-25T03:38:07.070Z,65.86
2018-02-25T03:40:34.777Z,65.96
2018-02-25T03:43:02.457Z,66.02
2018-02-25T03:45:30.160Z,66.17
2018-02-25T03:47:57.913Z,66.33
2018-02-25T03:50:25.676Z,66.34
2018-02-25T03:52:53.368Z,66.46
2018-02-25T03:55:21.110Z,66.69
2018-02-25T03:57:48.801Z,67.24
2018-02-25T04:00:16.532Z,67.74
2018-02-25T04:02:44.297Z,67.70
2018-02-25T04:05:12.038Z,67.44
2018-02-25T04:07:39.720Z,67.58
2018-02-25T04:10:07.502Z,67.56
2018-02-25T04:12:35.201Z,67.61
2018-02-25T04:15:02.926Z,67.32
2018-02-25T04:17:30.632Z,67.23
2018-02-25T04:19:58.348Z,67.21
2018-02-25T04:22:26.054Z,67.35
2018-02-25T04:24:53.741Z,67.33
2018-02-25T04:27:21.444Z,67.10
2018-02-25T04:29:49.132Z,67.13
2018-02-25T04:32:16.833Z,67.67
2018-02-25T04:34:44.525Z,67.72
2018-02-25T04:37:12.228Z,67.62
2018-02-25T04:39:39.960Z,67.88
2018-02-25T04:42:07.719Z,68.12
2018-02-25T04:44:35.496Z,68.21
2018-02-25T04:47:03.251Z,68.21
2018-02-25T04:49:31.016Z,67.84
2018-02-25T04:51:58.784Z,67.69
2018-02-25T04:54:26.464Z,67.56
2018-02-25T04:56:54.217Z,67.70
2018-02-25T04:59:21.924Z,67.79
2018-02-25T05:01:49.603Z,68.01
2018-02-25T05:04:17.420Z,68.47
2018-02-25T05:06:45.177Z,68.01
2018-02-25T05:09:12.876Z,67.86
2018-02-25T05:11:40.561Z,67.57
2018-02-25T05:14:08.266Z,67.16
2018-02-25T05:16:35.953Z,66.79
2018-02-25T05:19:03.660Z,66.46
2018-02-25T05:21:31.353Z,66.77
2018-02-25T05:23:59.125Z,66.60
2018-02-25T05:26:26.804Z,67.32
2018-02-25T05:28:54.505Z,66.92
2018-02-25T05:31:22.200Z,66.98
2018-02-25T05:33:49.883Z,67.28
2018-02-25T05:36:17.589Z,67.39
2018-02-25T05:38:45.270Z,67.47
2018-02-25T05:41:12.977Z,67.47
2018-02-25T05:43:40.789Z,66.92
2018-02-25T05:46:08.493Z,67.02
2018-02-25T05:48:36.187Z,66.93
2018-02-25T05:51:03.896Z,66.84
2018-02-25T05:53:31.582Z,66.94
2018-02-25T05:55:59.347Z,67.12
2018-02-25T05:58:27.031Z,66.98
2018-02-25T06:00:54.748Z,66.73
2018-02-25T06:03:22.429Z,66.64
2018-02-25T06:05:50.128Z,66.89
2018-02-25T06:08:17.878Z,67.10
2018-02-25T06:10:45.585Z,67.07
2018-02-25T06:13:13.268Z,67.09
2018-02-25T06:15:41.069Z,67.31
2018-02-25T06:18:08.804Z,67.41
2018-02-25T06:20:36.480Z,67.44
2018-02-25T06:23:04.237Z,67.43
2018-02-25T06:25:31.923Z,67.55
2018-02-25T06:27:59.633Z,67.41
2018-02-25T06:30:27.308Z,67.33
2018-02-25T06:32:55.132Z,67.21
2018-02-25T06:35:22.808Z,67.14
2018-02-25T06:37:50.544Z,67.06
2018-02-25T06:40:18.226Z,66.71
2018-02-25T06:42:45.939Z,66.69
2018-02-25T06:45:13.626Z,66.62
2018-02-25T06:47:41.336Z,66.69
2018-02-25T06:50:09.026Z,66.35
2018-02-25T06:52:36.829Z,66.25
2018-02-25T06:55:04.594Z,66.11
2018-02-25T06:57:32.296Z,66.05
2018-02-25T06:59:59.979Z,66.25
2018-02-25T07:02:27.788Z,66.27
2018-02-25T07:04:55.551Z,66.62
2018-02-25T07:07:23.320Z,66.90
2018-02-25T07:09:51.081Z,66.84
2018-02-25T07:12:18.853Z,66.86
2018-02-25T07:14:46.560Z,66.70
2018-02-25T07:17:14.272Z,66.79
2018-02-25T07:19:41.972Z,67.30
2018-02-25T07:22:09.704Z,67.42
2018-02-25T07:24:37.468Z,67.54
2018-02-25T07:27:05.149Z,67.72
2018-02-25T07:29:32.895Z,67.78
2018-02-25T07:32:00.578Z,67.95
2018-02-25T07:34:28.325Z,68.21
2018-02-25T07:36:56.087Z,68.24
2018-02-25T07:39:23.792Z,68.30
2018-02-25T07:41:51.477Z,68.16
2018-02-25T07:44:19.188Z,68.23
2018-02-25T07:46:46.872Z,68.44
2018-02-25T07:49:14.607Z,68.35
2018-02-25T07:51:42.283Z,68.67
2018-02-25T07:54:10.041Z,69.10
2018-02-25T07:56:37.741Z,69.47
2018-02-25T07:59:05.473Z,69.54
2018-02-25T08:01:33.156Z,69.17
2018-02-25T08:04:00.879Z,69.19
2018-02-25T08:06:28.557Z,68.61
2018-02-25T08:08:56.240Z,68.16
2018-02-25T08:11:23.968Z,68.08
2018-02-25T08:13:51.648Z,68.06
2018-02-25T08:16:19.357Z,67.52
2018-02-25T08:18:47.075Z,67.09
2018-02-25T08:21:14.849Z,67.47
2018-02-25T08:23:42.613Z,67.88
2018-02-25T08:26:10.321Z,67.99
2018-02-25T08:28:38.044Z,67.46
2018-02-25T08:31:05.744Z,67.42
2018-02-25T08:33:33.428Z,67.28
2018-02-25T08:36:01.136Z,67.58
2018-02-25T08:38:28.821Z,67.46
2018-02-25T08:40:56.556Z,67.34
2018-02-25T08:43:24.320Z,67.11
2018-02-25T08:45:52.092Z,66.73
2018-02-25T08:48:19.809Z,66.60
2018-02-25T08:50:47.489Z,66.42
2018-02-25T08:53:15.201Z,66.07
2018-02-25T08:55:42.948Z,66.05
2018-02-25T08:58:10.708Z,65.54
2018-02-25T09:00:38.393Z,65.48
2018-02-25T09:03:06.105Z,65.57
2018-02-25T09:05:33.792Z,65.94
2018-02-25T09:08:01.559Z,65.64
2018-02-25T09:10:29.337Z,65.61
2018-02-25T09:12:57.078Z,65.28
2018-02-25T09:15:24.859Z,65.35
2018-02-25T09:17:52.557Z,65.60
2018-02-25T09:20:20.284Z,65.39
2018-02-25T09:22:48.060Z,65.89
2018-02-25T09:25:15.825Z,65.45
2018-02-25T09:27:43.589Z,65.48
2018-02-25T09:30:11.332Z,64.87
2018-02-25T09:32:39.016Z,65.23
2018-02-25T09:35:06.771Z,65.12
2018-02-25T09:37:34.456Z,64.54
2018-02-25T09:40:02.199Z,64.83
2018-02-25T09:42:29.888Z,64.34
2018-02-25T09:44:57.596Z,64.41
2018-02-25T09:47:25.275Z,64.57
2018-02-25T09:49:53.065Z,64.02
2018-02-25T09:52:20.750Z,63.72
2018-02-25T09:54:48.478Z,63.73
2018-02-25T09:57:16.164Z,64.00
2018-02-25T09:59:43.920Z,64.11
2018-02-25T10:02:11.628Z,64.28
2018-02-25T10:04:39.329Z,64.25
2018-02-25T10:07:07.112Z,64.18
2018-02-25T10:09:34.897Z,64.10
2018-02-25T10:12:02.645Z,64.23
2018-02-25T10:14:30.404Z,64.30
2018-02-25T10:16:58.068Z,63.83
2018-02-25T10:19:25.752Z,63.35
2018-02-25T10:21:53.503Z,63.20
2018-02-25T10:24:21.264Z,63.44
2018-02-25T10:26:48.996Z,63.86
2018-02-25T10:29:16.596Z,63.65
2018-02-25T10:31:44.198Z,63.68
2018-02-25T10:34:11.829Z,63.60
2018-02-25T10:36:39.450Z,63.76
2018-02-25T10:39:07.068Z,63.68
2018-02-25T10:41:34.667Z,63.93
2018-02-25T10:44:02.367Z,63.87
2018-02-25T10:46:29.969Z,63.87
2018-02-25T10:48:57.684Z,64.14
2018-02-25T10:51:25.356Z,64.64
2018-02-25T10:53:53.013Z,65.01
2018-02-25T10:56:20.669Z,65.14
2018-02-25T10:58:48.293Z,65.62
2018-02-25T11:01:15.896Z,66.05
2018-02-25T11:03:43.525Z,66.09
2018-02-25T11:06:11.136Z,66.11
2018-02-25T11:08:38.746Z,66.17
2018-02-25T11:11:06.372Z,66.14
2018-02-25T11:13:33.972Z,65.33
2018-02-25T11:16:01.596Z,65.02
2018-02-25T11:18:29.227Z,64.71
2018-02-25T11:20:56.852Z,64.18
2018-02-25T11:23:24.461Z,63.90
2018-02-25T11:25:52.088Z,63.97
2018-02-25T11:28:19.709Z,63.84
2018-02-25T11:30:47.335Z,63.70
2018-02-25T11:33:14.936Z,63.34
2018-02-25T11:35:42.671Z,61.79
2018-02-25T11:38:10.333Z,61.49
2018-02-25T11:40:37.965Z,61.62
2018-02-25T11:43:05.652Z,60.29
2018-02-25T11:45:33.316Z,60.46
2018-02-25T11:48:00.940Z,60.45
2018-02-25T11:50:28.554Z,61.45
2018-02-25T11:52:56.186Z,61.90
2018-02-25T11:55:23.937Z,62.16
2018-02-25T11:57:51.628Z,63.01
2018-02-25T12:00:19.243Z,63.87
2018-02-25T12:02:46.890Z,63.49
2018-02-25T12:05:14.515Z,63.00
2018-02-25T12:07:42.293Z,63.31
2018-02-25T12:10:09.976Z,62.55
2018-02-25T12:12:37.709Z,62.42
2018-02-25T12:15:05.321Z,61.10
2018-02-25T12:17:33.040Z,61.33
2018-02-25T12:20:00.643Z,61.57
2018-02-25T12:22:28.362Z,62.12
2018-02-25T12:24:55.998Z,62.43
2018-02-25T12:27:23.604Z,63.36
2018-02-25T12:29:51.244Z,63.36
2018-02-25T12:32:18.932Z,63.20
2018-02-25T12:34:46.640Z,62.50
2018-02-25T12:37:14.246Z,62.39
2018-02-25T12:39:41.944Z,62.31
2018-02-25T12:42:09.624Z,62.14
2018-02-25T12:44:37.323Z,61.94
2018-02-25T12:47:05.006Z,61.94
2018-02-25T12:49:32.708Z,62.43
2018-02-25T12:52:00.414Z,62.17
2018-02-25T12:54:28.136Z,61.50
2018-02-25T12:56:55.853Z,61.25
2018-02-25T12:59:23.608Z,61.85
2018-02-25T13:01:51.284Z,61.76
2018-02-25T13:04:18.945Z,60.55
2018-02-25T13:06:46.569Z,59.90
2018-02-25T13:09:14.168Z,60.29
2018-02-25T13:11:41.792Z,59.91
2018-02-25T13:14:09.397Z,59.74
2018-02-25T13:16:37.048Z,59.80
2018-02-25T13:19:04.665Z,60.27
2018-02-25T13:21:32.291Z,59.68
2018-02-25T13:24:00.037Z,59.80
2018-02-25T13:26:27.744Z,60.64
2018-02-25T13:28:55.423Z,61.05
2018-02-25T13:31:23.225Z,60.99
2018-02-25T13:33:50.905Z,61.27
2018-02-25T13:36:18.665Z,61.06
2018-02-25T13:38:46.272Z,60.75
2018-02-25T13:41:13.892Z,60.28
2018-02-25T13:43:41.548Z,60.43
2018-02-25T13:46:09.207Z,60.03
2018-02-25T13:48:36.893Z,60.08
2018-02-25T13:51:04.535Z,60.23
2018-02-25T13:53:32.165Z,59.20
2018-02-25T13:55:59.768Z,59.10
2018-02-25T13:58:27.418Z,60.16
2018-02-25T14:00:55.079Z,61.13
2018-02-25T14:03:22.743Z,61.99
2018-02-25T14:05:50.358Z,62.18
2018-02-25T14:08:17.976Z,62.34
2018-02-25T14:10:45.632Z,62.37
2018-02-25T14:13:13.302Z,62.67
2018-02-25T14:15:40.906Z,63.27
2018-02-25T14:18:08.604Z,63.72
2018-02-25T14:20:36.280Z,64.30
2018-02-25T14:23:04.048Z,64.98
2018-02-25T14:25:31.741Z,65.69
2018-02-25T14:27:59.426Z,65.99
2018-02-25T14:30:27.135Z,66.40
2018-02-25T14:32:54.829Z,66.96
2018-02-25T14:35:22.796Z,67.51
2018-02-25T14:37:50.480Z,67.64
2018-02-25T14:40:18.200Z,67.76
2018-02-25T14:42:45.888Z,68.12
2018-02-25T14:45:13.631Z,68.23
2018-02-25T14:47:41.402Z,68.17
2018-02-25T14:50:09.166Z,68.44
2018-02-25T14:52:38.261Z,68.75
2018-02-25T14:55:06.024Z,68.41
2018-02-25T14:57:33.792Z,68.36
2018-02-25T15:00:01.497Z,68.40
2018-02-25T15:02:29.220Z,68.28
2018-02-25T15:04:56.945Z,67.93
2018-02-25T15:07:24.624Z,67.84
2018-02-25T15:09:52.304Z,68.36
2018-02-25T15:12:20.077Z,67.72
2018-02-25T15:14:47.911Z,67.77
2018-02-25T15:17:15.616Z,67.92
2018-02-25T15:19:43.377Z,66.52
2018-02-25T15:22:11.097Z,65.73
2018-02-25T15:24:38.781Z,65.13
2018-02-25T15:27:06.569Z,64.60
2018-02-25T15:29:34.332Z,64.65
2018-02-25T15:32:02.040Z,65.00
2018-02-25T15:34:29.858Z,64.72
2018-02-25T15:36:57.582Z,63.96
2018-02-25T15:39:25.293Z,64.48
2018-02-25T15:41:53.057Z,64.45
2018-02-25T15:44:20.753Z,64.28
2018-02-25T15:46:48.455Z,64.24
2018-02-25T15:49:16.139Z,64.13
2018-02-25T15:51:43.846Z,64.30
2018-02-25T15:54:11.569Z,64.14
2018-02-25T15:56:39.335Z,64.59
2018-02-25T15:59:07.012Z,64.60
2018-02-25T16:01:35.620Z,64.66
2018-02-25T16:04:03.357Z,64.28
2018-02-25T16:06:31.037Z,64.34
2018-02-25T16:08:58.789Z,64.66
2018-02-25T16:11:26.582Z,64.74
2018-02-25T16:13:54.277Z,64.91
2018-02-25T16:16:21.971Z,65.12
2018-02-25T16:18:49.677Z,65.43
2018-02-25T16:21:17.405Z,65.54
2018-02-25T16:23:45.164Z,65.82
2018-02-25T16:26:12.848Z,65.96
2018-02-25T16:28:40.573Z,66.01
2018-02-25T16:31:08.366Z,66.06
2018-02-25T16:33:36.097Z,66.57
2018-02-25T16:36:04.833Z,66.43
2018-02-25T16:38:32.677Z,66.35
2018-02-25T16:41:00.380Z,66.08
2018-02-25T16:43:28.107Z,66.14
2018-02-25T16:45:55.808Z,66.02
2018-02-25T16:48:23.540Z,65.91
2018-02-25T16:50:51.245Z,66.22
2018-02-25T16:53:18.933Z,66.63
2018-02-25T16:55:46.634Z,66.66
2018-02-25T16:58:14.400Z,66.74
2018-02-25T17:00:42.160Z,66.90
2018-02-25T17:03:09.924Z,67.17
2018-02-25T17:05:37.633Z,67.42
2018-02-25T17:08:05.321Z,67.71
2018-02-25T17:10:33.043Z,69.70
2018-02-25T17:13:00.785Z,68.50
2018-02-25T17:15:28.553Z,68.29
2018-02-25T17:17:56.262Z,68.58
2018-02-25T17:20:23.944Z,68.66
2018-02-25T17:22:51.744Z,68.84
2018-02-25T17:25:19.428Z,68.82
2018-02-25T17:27:47.169Z,69.16
2018-02-25T17:30:14.940Z,68.94
2018-02-25T17:32:42.640Z,69.06
2018-02-25T17:35:10.374Z,68.97
2018-02-25T17:37:38.093Z,69.07
2018-02-25T17:40:05.796Z,69.01
2018-02-25T17:42:33.507Z,69.09
2018-02-25T17:45:01.188Z,69.29
2018-02-25T17:47:28.912Z,69.34
2018-02-25T17:49:56.644Z,69.72
2018-02-25T17:52:24.333Z,69.71
2018-02-25T17:54:52.082Z,69.62
2018-02-25T17:57:19.847Z,69.59
2018-02-25T17:59:47.608Z,69.42
2018-02-25T18:02:15.367Z,69.43
2018-02-25T18:04:43.077Z,69.32
2018-02-25T18:07:10.808Z,69.55
2018-02-25T18:09:38.571Z,69.71
2018-02-25T18:12:06.329Z,70.07
2018-02-25T18:14:34.101Z,70.25
2018-02-25T18:17:01.860Z,70.45
2018-02-25T18:19:29.658Z,70.54
2018-02-25T18:24:36.730Z,71.18
2018-02-25T18:27:04.492Z,71.46
2018-02-25T18:29:32.204Z,71.77
2018-02-25T18:31:59.892Z,71.94
2018-02-25T18:34:27.624Z,72.34
2018-02-25T18:36:55.304Z,72.48
2018-02-25T18:39:23.024Z,72.52
2018-02-25T18:41:50.777Z,72.83
2018-02-25T18:44:18.549Z,72.86
2018-02-25T18:46:46.256Z,72.95
2018-02-25T18:49:13.978Z,73.11
2018-02-25T18:51:41.745Z,73.39
2018-02-25T18:54:09.499Z,73.48
2018-02-25T18:56:37.200Z,73.47
2018-02-25T18:59:04.936Z,73.52
2018-02-25T19:01:32.701Z,73.52
2018-02-25T19:04:00.460Z,73.60
2018-02-25T19:06:28.229Z,73.72
2018-02-25T19:08:55.992Z,73.84
2018-02-25T19:11:23.720Z,73.79
2018-02-25T19:13:51.425Z,73.75
2018-02-25T19:16:19.243Z,73.31
2018-02-25T19:18:46.971Z,72.65
2018-02-25T19:21:14.665Z,72.76
2018-02-25T19:23:42.489Z,72.75
2018-02-25T19:26:10.247Z,72.86
2018-02-25T19:28:37.950Z,73.00
2018-02-25T19:31:05.685Z,72.85
2018-02-25T19:33:33.398Z,73.30
2018-02-25T19:39:09.492Z,73.96
2018-02-25T19:41:42.841Z,73.94
2018-02-25T19:44:10.584Z,73.91
2018-02-25T19:46:38.285Z,74.07
2018-02-25T19:49:06.016Z,73.51
2018-02-25T19:51:33.776Z,73.32
2018-02-25T19:54:01.556Z,73.09
2018-02-25T19:56:29.316Z,72.92
2018-02-25T19:58:57.010Z,73.06
2018-02-25T20:01:24.723Z,73.42
2018-02-25T20:03:52.504Z,74.77
2018-02-25T20:06:20.264Z,75.94
2018-02-25T20:08:48.028Z,76.37
2018-02-25T20:11:15.802Z,76.27
2018-02-25T20:13:43.496Z,76.25
2018-02-25T20:16:11.201Z,76.11
2018-02-25T20:18:38.927Z,76.09
2018-02-25T20:21:06.632Z,76.00
2018-02-25T20:23:34.312Z,76.19
2018-02-25T20:26:02.085Z,75.92
2018-02-25T20:28:29.765Z,75.54
2018-02-25T20:30:57.513Z,75.29
2018-02-25T20:33:25.228Z,75.11
2018-02-25T20:35:53.032Z,75.08
2018-02-25T20:38:20.708Z,75.18
2018-02-25T20:40:48.470Z,75.00
2018-02-25T20:43:16.172Z,74.99
2018-02-25T20:45:43.985Z,74.88
2018-02-25T20:48:11.693Z,74.83
2018-02-25T20:50:39.426Z,75.03
2018-02-25T20:53:07.137Z,75.16
2018-02-25T20:55:34.950Z,75.28
2018-02-25T20:58:02.724Z,75.30
2018-02-25T21:00:30.489Z,75.22
2018-02-25T21:02:58.248Z,74.88
2018-02-25T21:05:25.933Z,74.72
2018-02-25T21:07:53.724Z,74.56
2018-02-25T21:10:21.457Z,74.24
2018-02-25T21:12:49.141Z,74.15
2018-02-25T21:15:16.855Z,74.36
2018-02-25T21:20:11.541Z,74.52
2018-02-25T21:22:39.220Z,74.53
2018-02-25T21:25:06.933Z,74.14
2018-02-25T21:27:34.681Z,74.55
2018-02-25T21:30:02.393Z,74.65
2018-02-25T21:32:30.068Z,74.92
2018-02-25T21:34:57.776Z,74.82
2018-02-25T21:37:25.534Z,74.75
2018-02-25T21:39:53.253Z,75.42
2018-02-25T21:42:20.956Z,75.62
2018-02-25T21:44:48.728Z,75.52
2018-02-25T21:47:16.501Z,75.88
2018-02-25T21:49:44.184Z,75.77
2018-02-25T21:52:11.921Z,75.62
2018-02-25T21:54:45.357Z,75.47
2018-02-25T21:57:18.591Z,75.73
2018-02-25T22:03:11.529Z,75.79
2018-02-25T22:05:39.220Z,76.05
2018-02-25T22:08:07.019Z,75.84
2018-02-25T22:10:34.786Z,75.92
2018-02-25T22:13:02.557Z,75.86
2018-02-25T22:15:30.312Z,75.65
2018-02-25T22:17:58.031Z,75.69
2018-02-25T22:20:25.748Z,75.67
2018-02-25T22:22:53.462Z,75.48
2018-02-25T22:25:21.168Z,74.93
2018-02-25T22:27:48.932Z,75.00
2018-02-25T22:30:16.660Z,74.96
2018-02-25T22:32:44.369Z,75.27
2018-02-25T22:35:12.129Z,75.31
2018-02-25T22:37:39.899Z,74.84
2018-02-25T22:40:07.657Z,75.12
2018-02-25T22:42:35.348Z,75.50
2018-02-25T22:45:03.083Z,75.33
2018-02-25T22:47:30.760Z,75.46
2018-02-25T22:49:58.518Z,75.35
2018-02-25T22:52:26.280Z,75.51
2018-02-25T22:54:53.984Z,75.52
2018-02-25T22:57:21.688Z,75.48
2018-02-25T22:59:49.407Z,75.38
2018-02-25T23:02:17.138Z,75.38
2018-02-25T23:04:44.895Z,75.49
2018-02-25T23:07:12.604Z,75.74
2018-02-25T23:09:40.297Z,75.96
2018-02-25T23:12:07.993Z,76.26
2018-02-25T23:14:35.760Z,76.81
2018-02-25T23:17:03.461Z,76.92
2018-02-25T23:19:31.188Z,76.61
2018-02-25T23:21:58.948Z,76.76
2018-02-25T23:24:26.711Z,76.88
2018-02-25T23:26:54.452Z,77.05
2018-02-25T23:29:22.117Z,77.52
2018-02-25T23:31:49.908Z,77.78
2018-02-25T23:34:17.592Z,77.84
2018-02-25T23:36:45.335Z,78.11
2018-02-25T23:39:13.039Z,78.31
2018-02-25T23:41:40.729Z,78.17
2018-02-25T23:44:08.440Z,78.09
2018-02-25T23:46:36.128Z,78.01
2018-02-25T23:49:03.861Z,77.91
2018-02-25T23:51:31.626Z,78.02
2018-02-25T23:53:59.332Z,78.00
2018-02-25T23:56:27.020Z,77.98
2018-02-25T23:58:54.724Z,77.91
